sensor_id;sensor_type;location;lat;lon;timestamp;temperature;humidity
19174;DHT22;9719;49.322;8.536;2023-07-20T00:02:03;27.50;68.20
19174;DHT22;9719;49.322;8.536;2023-07-20T00:07:07;27.50;68.20
19174;DHT22;9719;49.322;8.536;2023-07-20T00:12:09;27.50;68.20
19174;DHT22;9719;49.322;8.536;2023-07-20T00:17:10;27.50;68.20
19174;DHT22;9719;49.322;8.536;2023-07-20T00:22:13;27.50;68.20
19174;DHT22;9719;49.322;8.536;2023-07-20T00:27:15;27.50;68.20
19174;DHT22;9719;49.322;8.536;2023-07-20T00:32:17;27.50;68.30
19174;DHT22;9719;49.322;8.536;2023-07-20T00:37:20;27.50;68.30
19174;DHT22;9719;49.322;8.536;2023-07-20T00:42:21;27.50;68.30
19174;DHT22;9719;49.322;8.536;2023-07-20T00:47:23;27.40;68.20
19174;DHT22;9719;49.322;8.536;2023-07-20T00:52:27;27.40;68.20
19174;DHT22;9719;49.322;8.536;2023-07-20T00:57:30;27.40;68.20
19174;DHT22;9719;49.322;8.536;2023-07-20T01:02:31;27.40;68.20
19174;DHT22;9719;49.322;8.536;2023-07-20T01:07:40;27.40;68.20
19174;DHT22;9719;49.322;8.536;2023-07-20T01:12:47;27.40;68.10
19174;DHT22;9719;49.322;8.536;2023-07-20T01:17:49;27.40;68.20
19174;DHT22;9719;49.322;8.536;2023-07-20T01:23:15;27.40;68.20
19174;DHT22;9719;49.322;8.536;2023-07-20T01:28:37;27.40;68.00
19174;DHT22;9719;49.322;8.536;2023-07-20T01:33:46;27.40;67.90
19174;DHT22;9719;49.322;8.536;2023-07-20T01:38:48;27.30;68.10
19174;DHT22;9719;49.322;8.536;2023-07-20T01:43:50;27.30;68.10
19174;DHT22;9719;49.322;8.536;2023-07-20T01:48:54;27.30;68.10
19174;DHT22;9719;49.322;8.536;2023-07-20T01:53:56;27.30;68.10
19174;DHT22;9719;49.322;8.536;2023-07-20T01:58:58;27.30;68.10
19174;DHT22;9719;49.322;8.536;2023-07-20T02:04:00;27.30;68.10
19174;DHT22;9719;49.322;8.536;2023-07-20T02:09:02;27.30;68.00
19174;DHT22;9719;49.322;8.536;2023-07-20T02:14:04;27.30;68.10
19174;DHT22;9719;49.322;8.536;2023-07-20T02:19:07;27.30;68.10
19174;DHT22;9719;49.322;8.536;2023-07-20T02:24:09;27.30;68.10
19174;DHT22;9719;49.322;8.536;2023-07-20T02:29:10;27.20;68.00
19174;DHT22;9719;49.322;8.536;2023-07-20T02:34:14;27.20;68.10
19174;DHT22;9719;49.322;8.536;2023-07-20T02:39:15;27.20;68.10
19174;DHT22;9719;49.322;8.536;2023-07-20T02:44:17;27.20;68.10
19174;DHT22;9719;49.322;8.536;2023-07-20T02:49:20;27.20;68.10
19174;DHT22;9719;49.322;8.536;2023-07-20T02:54:22;27.20;68.10
19174;DHT22;9719;49.322;8.536;2023-07-20T02:59:23;27.20;68.10
19174;DHT22;9719;49.322;8.536;2023-07-20T03:04:27;27.20;68.20
19174;DHT22;9719;49.322;8.536;2023-07-20T03:09:29;27.20;68.10
19174;DHT22;9719;49.322;8.536;2023-07-20T03:14:30;27.10;68.00
19174;DHT22;9719;49.322;8.536;2023-07-20T03:19:33;27.20;68.20
19174;DHT22;9719;49.322;8.536;2023-07-20T03:24:35;27.10;68.20
19174;DHT22;9719;49.322;8.536;2023-07-20T03:29:36;27.10;68.40
19174;DHT22;9719;49.322;8.536;2023-07-20T03:34:40;27.10;68.40
19174;DHT22;9719;49.322;8.536;2023-07-20T03:39:42;27.10;68.50
19174;DHT22;9719;49.322;8.536;2023-07-20T03:44:43;27.10;68.60
19174;DHT22;9719;49.322;8.536;2023-07-20T03:49:46;27.10;68.60
19174;DHT22;9719;49.322;8.536;2023-07-20T03:54:48;27.10;68.70
19174;DHT22;9719;49.322;8.536;2023-07-20T03:59:51;27.10;68.70
19174;DHT22;9719;49.322;8.536;2023-07-20T04:04:54;27.10;68.80
19174;DHT22;9719;49.322;8.536;2023-07-20T04:09:56;27.10;68.90
19174;DHT22;9719;49.322;8.536;2023-07-20T04:14:57;27.00;68.80
19174;DHT22;9719;49.322;8.536;2023-07-20T04:20:00;27.00;68.90
19174;DHT22;9719;49.322;8.536;2023-07-20T04:25:03;27.00;68.90
19174;DHT22;9719;49.322;8.536;2023-07-20T04:30:07;27.00;69.00
19174;DHT22;9719;49.322;8.536;2023-07-20T04:35:10;27.00;69.00
19174;DHT22;9719;49.322;8.536;2023-07-20T04:40:15;27.00;69.10
19174;DHT22;9719;49.322;8.536;2023-07-20T04:45:17;27.00;69.90
19174;DHT22;9719;49.322;8.536;2023-07-20T04:50:20;27.00;69.20
19174;DHT22;9719;49.322;8.536;2023-07-20T04:55:22;27.00;69.20
19174;DHT22;9719;49.322;8.536;2023-07-20T05:00:24;27.00;69.20
19174;DHT22;9719;49.322;8.536;2023-07-20T05:05:27;27.00;69.30
19174;DHT22;9719;49.322;8.536;2023-07-20T05:10:28;27.00;69.30
19174;DHT22;9719;49.322;8.536;2023-07-20T05:15:32;27.00;69.30
19174;DHT22;9719;49.322;8.536;2023-07-20T05:20:35;26.90;69.30
19174;DHT22;9719;49.322;8.536;2023-07-20T05:25:37;26.90;69.30
19174;DHT22;9719;49.322;8.536;2023-07-20T05:30:40;26.90;69.30
19174;DHT22;9719;49.322;8.536;2023-07-20T05:35:43;26.90;69.40
19174;DHT22;9719;49.322;8.536;2023-07-20T05:40:45;26.90;69.50
19174;DHT22;9719;49.322;8.536;2023-07-20T05:45:47;26.90;69.50
19174;DHT22;9719;49.322;8.536;2023-07-20T05:50:50;26.90;69.60
19174;DHT22;9719;49.322;8.536;2023-07-20T05:55:52;26.90;69.60
19174;DHT22;9719;49.322;8.536;2023-07-20T06:00:54;26.90;69.70
19174;DHT22;9719;49.322;8.536;2023-07-20T06:05:59;26.80;68.60
19174;DHT22;9719;49.322;8.536;2023-07-20T06:11:01;26.70;68.50
19174;DHT22;9719;49.322;8.536;2023-07-20T06:16:03;26.50;69.40
19174;DHT22;9719;49.322;8.536;2023-07-20T06:21:06;26.40;68.90
19174;DHT22;9719;49.322;8.536;2023-07-20T06:26:08;26.20;68.90
19174;DHT22;9719;49.322;8.536;2023-07-20T06:31:09;26.10;69.10
19174;DHT22;9719;49.322;8.536;2023-07-20T06:36:13;26.00;69.30
19174;DHT22;9719;49.322;8.536;2023-07-20T06:41:14;26.00;69.60
19174;DHT22;9719;49.322;8.536;2023-07-20T06:46:16;25.90;70.60
19174;DHT22;9719;49.322;8.536;2023-07-20T06:51:19;25.80;69.80
19174;DHT22;9719;49.322;8.536;2023-07-20T06:56:21;25.80;70.00
19174;DHT22;9719;49.322;8.536;2023-07-20T07:01:22;25.80;70.30
19174;DHT22;9719;49.322;8.536;2023-07-20T07:06:25;25.80;70.50
19174;DHT22;9719;49.322;8.536;2023-07-20T07:11:28;25.70;70.60
19174;DHT22;9719;49.322;8.536;2023-07-20T07:16:29;25.70;71.00
19174;DHT22;9719;49.322;8.536;2023-07-20T07:21:32;25.60;71.10
19174;DHT22;9719;49.322;8.536;2023-07-20T07:26:34;25.60;71.30
19174;DHT22;9719;49.322;8.536;2023-07-20T07:31:35;25.60;71.40
19174;DHT22;9719;49.322;8.536;2023-07-20T07:36:40;25.60;71.30
19174;DHT22;9719;49.322;8.536;2023-07-20T07:41:41;25.60;71.30
19174;DHT22;9719;49.322;8.536;2023-07-20T07:46:43;25.60;71.30
19174;DHT22;9719;49.322;8.536;2023-07-20T07:51:46;25.60;71.20
19174;DHT22;9719;49.322;8.536;2023-07-20T07:56:48;25.60;71.10
19174;DHT22;9719;49.322;8.536;2023-07-20T08:01:51;25.50;71.30
19174;DHT22;9719;49.322;8.536;2023-07-20T08:06:54;25.60;71.40
19174;DHT22;9719;49.322;8.536;2023-07-20T08:11:56;25.70;71.50
19174;DHT22;9719;49.322;8.536;2023-07-20T08:16:58;25.70;71.50
19174;DHT22;9719;49.322;8.536;2023-07-20T08:22:01;25.70;71.30
19174;DHT22;9719;49.322;8.536;2023-07-20T08:27:03;25.80;71.40
19174;DHT22;9719;49.322;8.536;2023-07-20T08:32:06;25.80;71.30
19174;DHT22;9719;49.322;8.536;2023-07-20T08:37:09;25.90;71.40
19174;DHT22;9719;49.322;8.536;2023-07-20T08:42:14;25.90;71.30
19174;DHT22;9719;49.322;8.536;2023-07-20T08:47:16;25.90;71.20
19174;DHT22;9719;49.322;8.536;2023-07-20T08:52:19;25.90;71.10
19174;DHT22;9719;49.322;8.536;2023-07-20T08:57:21;26.00;71.10
19174;DHT22;9719;49.322;8.536;2023-07-20T09:02:26;26.00;71.10
19174;DHT22;9719;49.322;8.536;2023-07-20T09:07:29;26.00;71.00
19174;DHT22;9719;49.322;8.536;2023-07-20T09:12:32;26.00;70.90
19174;DHT22;9719;49.322;8.536;2023-07-20T09:17:36;26.00;70.90
19174;DHT22;9719;49.322;8.536;2023-07-20T09:22:39;26.10;70.90
19174;DHT22;9719;49.322;8.536;2023-07-20T09:27:42;26.10;70.80
19174;DHT22;9719;49.322;8.536;2023-07-20T09:32:45;26.10;70.70
19174;DHT22;9719;49.322;8.536;2023-07-20T09:37:49;26.10;70.70
19174;DHT22;9719;49.322;8.536;2023-07-20T09:42:53;26.20;70.70
19174;DHT22;9719;49.322;8.536;2023-07-20T09:48:03;26.20;70.60
19174;DHT22;9719;49.322;8.536;2023-07-20T09:53:11;26.20;70.60
19174;DHT22;9719;49.322;8.536;2023-07-20T09:58:13;26.20;70.60
19174;DHT22;9719;49.322;8.536;2023-07-20T10:03:18;26.20;70.50
19174;DHT22;9719;49.322;8.536;2023-07-20T10:08:24;26.30;70.60
19174;DHT22;9719;49.322;8.536;2023-07-20T10:13:27;26.30;70.50
19174;DHT22;9719;49.322;8.536;2023-07-20T10:18:34;26.30;70.50
19174;DHT22;9719;49.322;8.536;2023-07-20T10:23:41;26.30;70.40
19174;DHT22;9719;49.322;8.536;2023-07-20T10:28:43;26.30;70.40
19174;DHT22;9719;49.322;8.536;2023-07-20T10:33:46;26.40;70.40
19174;DHT22;9719;49.322;8.536;2023-07-20T10:38:54;26.40;70.40
19174;DHT22;9719;49.322;8.536;2023-07-20T10:44:01;26.40;70.40
19174;DHT22;9719;49.322;8.536;2023-07-20T10:49:04;26.50;70.40
19174;DHT22;9719;49.322;8.536;2023-07-20T10:54:11;26.40;70.20
19174;DHT22;9719;49.322;8.536;2023-07-20T10:59:37;26.50;70.20
19174;DHT22;9719;49.322;8.536;2023-07-20T11:04:41;26.50;70.10
19174;DHT22;9719;49.322;8.536;2023-07-20T11:09:44;26.50;70.10
19174;DHT22;9719;49.322;8.536;2023-07-20T11:14:54;26.60;70.10
19174;DHT22;9719;49.322;8.536;2023-07-20T11:19:57;26.60;70.00
19174;DHT22;9719;49.322;8.536;2023-07-20T11:25:02;26.60;70.00
19174;DHT22;9719;49.322;8.536;2023-07-20T11:30:15;26.60;70.00
19174;DHT22;9719;49.322;8.536;2023-07-20T11:35:17;26.60;69.90
19174;DHT22;9719;49.322;8.536;2023-07-20T11:40:20;26.70;70.00
19174;DHT22;9719;49.322;8.536;2023-07-20T11:45:22;26.70;70.00
19174;DHT22;9719;49.322;8.536;2023-07-20T11:50:23;26.70;69.90
19174;DHT22;9719;49.322;8.536;2023-07-20T11:55:26;26.70;69.90
19174;DHT22;9719;49.322;8.536;2023-07-20T12:00:28;26.70;69.80
19174;DHT22;9719;49.322;8.536;2023-07-20T12:05:30;26.80;69.90
19174;DHT22;9719;49.322;8.536;2023-07-20T12:10:33;26.70;69.70
19174;DHT22;9719;49.322;8.536;2023-07-20T12:15:34;26.70;69.70
19174;DHT22;9719;49.322;8.536;2023-07-20T12:20:37;26.60;69.80
19174;DHT22;9719;49.322;8.536;2023-07-20T12:25:42;26.50;69.90
19174;DHT22;9719;49.322;8.536;2023-07-20T12:30:46;26.40;69.90
19174;DHT22;9719;49.322;8.536;2023-07-20T12:35:48;26.30;70.00
19174;DHT22;9719;49.322;8.536;2023-07-20T12:40:51;26.30;70.00
19174;DHT22;9719;49.322;8.536;2023-07-20T12:45:55;26.20;70.00
19174;DHT22;9719;49.322;8.536;2023-07-20T12:50:57;26.20;70.10
19174;DHT22;9719;49.322;8.536;2023-07-20T12:56:00;26.20;70.30
19174;DHT22;9719;49.322;8.536;2023-07-20T13:01:02;26.20;70.30
19174;DHT22;9719;49.322;8.536;2023-07-20T13:06:04;26.20;70.10
19174;DHT22;9719;49.322;8.536;2023-07-20T13:11:07;26.10;70.50
19174;DHT22;9719;49.322;8.536;2023-07-20T13:16:09;26.10;70.40
19174;DHT22;9719;49.322;8.536;2023-07-20T13:21:10;26.10;70.30
19174;DHT22;9719;49.322;8.536;2023-07-20T13:26:14;26.10;70.50
19174;DHT22;9719;49.322;8.536;2023-07-20T13:31:15;26.10;70.40
19174;DHT22;9719;49.322;8.536;2023-07-20T13:36:17;26.10;70.40
19174;DHT22;9719;49.322;8.536;2023-07-20T13:41:22;26.10;70.30
19174;DHT22;9719;49.322;8.536;2023-07-20T13:46:24;26.10;70.20
19174;DHT22;9719;49.322;8.536;2023-07-20T13:51:25;26.00;70.00
19174;DHT22;9719;49.322;8.536;2023-07-20T13:56:29;26.00;70.10
19174;DHT22;9719;49.322;8.536;2023-07-20T14:01:30;25.90;69.90
19174;DHT22;9719;49.322;8.536;2023-07-20T14:06:33;25.80;69.50
19174;DHT22;9719;49.322;8.536;2023-07-20T14:11:36;25.70;69.00
19174;DHT22;9719;49.322;8.536;2023-07-20T14:16:38;25.60;68.40
19174;DHT22;9719;49.322;8.536;2023-07-20T14:21:40;25.40;67.80
19174;DHT22;9719;49.322;8.536;2023-07-20T14:26:43;25.30;67.40
19174;DHT22;9719;49.322;8.536;2023-07-20T14:31:45;25.20;67.00
19174;DHT22;9719;49.322;8.536;2023-07-20T14:36:49;25.10;66.70
19174;DHT22;9719;49.322;8.536;2023-07-20T14:41:52;25.10;66.30
19174;DHT22;9719;49.322;8.536;2023-07-20T14:46:54;25.00;66.00
19174;DHT22;9719;49.322;8.536;2023-07-20T14:51:56;24.90;65.80
19174;DHT22;9719;49.322;8.536;2023-07-20T14:56:59;24.90;65.40
19174;DHT22;9719;49.322;8.536;2023-07-20T15:02:00;24.80;65.10
19174;DHT22;9719;49.322;8.536;2023-07-20T15:07:03;24.80;65.10
19174;DHT22;9719;49.322;8.536;2023-07-20T15:12:07;24.80;65.40
19174;DHT22;9719;49.322;8.536;2023-07-20T15:17:10;25.10;65.50
19174;DHT22;9719;49.322;8.536;2023-07-20T15:22:12;25.20;65.50
19174;DHT22;9719;49.322;8.536;2023-07-20T15:27:15;25.40;65.50
19174;DHT22;9719;49.322;8.536;2023-07-20T15:32:18;25.60;65.50
19174;DHT22;9719;49.322;8.536;2023-07-20T15:37:20;25.70;65.40
19174;DHT22;9719;49.322;8.536;2023-07-20T15:42:23;25.80;65.40
19174;DHT22;9719;49.322;8.536;2023-07-20T15:47:25;26.00;65.50
19174;DHT22;9719;49.322;8.536;2023-07-20T15:52:27;26.00;65.40
19174;DHT22;9719;49.322;8.536;2023-07-20T15:57:30;26.20;65.60
19174;DHT22;9719;49.322;8.536;2023-07-20T16:02:32;26.20;65.50
19174;DHT22;9719;49.322;8.536;2023-07-20T16:07:34;26.30;65.50
19174;DHT22;9719;49.322;8.536;2023-07-20T16:12:37;26.30;65.70
19174;DHT22;9719;49.322;8.536;2023-07-20T16:17:39;26.40;66.20
19174;DHT22;9719;49.322;8.536;2023-07-20T16:22:41;26.50;66.00
19174;DHT22;9719;49.322;8.536;2023-07-20T16:27:44;26.50;66.00
19174;DHT22;9719;49.322;8.536;2023-07-20T16:32:46;26.60;66.10
19174;DHT22;9719;49.322;8.536;2023-07-20T16:37:48;26.60;66.20
19174;DHT22;9719;49.322;8.536;2023-07-20T16:42:51;26.70;66.40
19174;DHT22;9719;49.322;8.536;2023-07-20T16:47:53;26.70;66.40
19174;DHT22;9719;49.322;8.536;2023-07-20T16:52:55;26.80;66.60
19174;DHT22;9719;49.322;8.536;2023-07-20T16:57:58;26.80;66.60
19174;DHT22;9719;49.322;8.536;2023-07-20T17:03:00;26.90;66.70
19174;DHT22;9719;49.322;8.536;2023-07-20T17:08:03;26.90;66.60
19174;DHT22;9719;49.322;8.536;2023-07-20T17:13:07;26.90;66.70
19174;DHT22;9719;49.322;8.536;2023-07-20T17:18:10;27.00;66.60
19174;DHT22;9719;49.322;8.536;2023-07-20T17:23:13;27.00;66.80
19174;DHT22;9719;49.322;8.536;2023-07-20T17:28:16;27.00;66.30
19174;DHT22;9719;49.322;8.536;2023-07-20T17:33:18;27.00;65.50
19174;DHT22;9719;49.322;8.536;2023-07-20T17:38:20;27.00;65.80
19174;DHT22;9719;49.322;8.536;2023-07-20T17:43:24;27.10;66.10
19174;DHT22;9719;49.322;8.536;2023-07-20T17:48:26;27.10;66.30
19174;DHT22;9719;49.322;8.536;2023-07-20T17:53:28;27.10;66.50
19174;DHT22;9719;49.322;8.536;2023-07-20T17:58:31;27.10;66.60
19174;DHT22;9719;49.322;8.536;2023-07-20T18:03:33;27.10;66.70
19174;DHT22;9719;49.322;8.536;2023-07-20T18:08:35;27.10;66.80
19174;DHT22;9719;49.322;8.536;2023-07-20T18:13:39;27.10;66.80
19174;DHT22;9719;49.322;8.536;2023-07-20T18:18:41;27.20;66.90
19174;DHT22;9719;49.322;8.536;2023-07-20T18:23:43;27.20;67.00
19174;DHT22;9719;49.322;8.536;2023-07-20T18:28:46;27.20;67.80
19174;DHT22;9719;49.322;8.536;2023-07-20T18:33:48;27.20;67.10
19174;DHT22;9719;49.322;8.536;2023-07-20T18:38:50;27.20;67.20
19174;DHT22;9719;49.322;8.536;2023-07-20T18:43:53;27.20;67.20
19174;DHT22;9719;49.322;8.536;2023-07-20T18:48:55;27.20;67.30
19174;DHT22;9719;49.322;8.536;2023-07-20T18:53:58;27.20;67.40
19174;DHT22;9719;49.322;8.536;2023-07-20T18:59:01;27.20;67.50
19174;DHT22;9719;49.322;8.536;2023-07-20T19:04:03;27.20;67.60
19174;DHT22;9719;49.322;8.536;2023-07-20T19:09:05;27.20;67.70
19174;DHT22;9719;49.322;8.536;2023-07-20T19:14:09;27.20;67.80
19174;DHT22;9719;49.322;8.536;2023-07-20T19:19:10;27.20;67.90
19174;DHT22;9719;49.322;8.536;2023-07-20T19:24:12;27.20;68.00
19174;DHT22;9719;49.322;8.536;2023-07-20T19:29:16;27.20;67.40
19174;DHT22;9719;49.322;8.536;2023-07-20T19:34:18;27.20;67.60
19174;DHT22;9719;49.322;8.536;2023-07-20T19:39:19;27.10;66.50
19174;DHT22;9719;49.322;8.536;2023-07-20T19:44:23;27.00;66.30
19174;DHT22;9719;49.322;8.536;2023-07-20T19:49:25;27.00;66.10
19174;DHT22;9719;49.322;8.536;2023-07-20T19:54:27;26.90;65.70
19174;DHT22;9719;49.322;8.536;2023-07-20T19:59:31;26.90;65.90
19174;DHT22;9719;49.322;8.536;2023-07-20T20:04:35;26.80;65.90
19174;DHT22;9719;49.322;8.536;2023-07-20T20:09:36;26.80;65.90
19174;DHT22;9719;49.322;8.536;2023-07-20T20:14:40;26.70;66.40
19174;DHT22;9719;49.322;8.536;2023-07-20T20:19:42;26.70;66.80
19174;DHT22;9719;49.322;8.536;2023-07-20T20:24:45;26.80;67.20
19174;DHT22;9719;49.322;8.536;2023-07-20T20:29:48;26.90;67.40
19174;DHT22;9719;49.322;8.536;2023-07-20T20:34:51;26.90;67.50
19174;DHT22;9719;49.322;8.536;2023-07-20T20:39:53;26.90;67.50
19174;DHT22;9719;49.322;8.536;2023-07-20T20:44:56;26.90;67.60
19174;DHT22;9719;49.322;8.536;2023-07-20T20:50:01;27.00;67.80
19174;DHT22;9719;49.322;8.536;2023-07-20T20:55:03;26.90;67.50
19174;DHT22;9719;49.322;8.536;2023-07-20T21:00:07;26.80;67.70
19174;DHT22;9719;49.322;8.536;2023-07-20T21:05:10;26.80;68.00
19174;DHT22;9719;49.322;8.536;2023-07-20T21:10:12;26.80;68.10
19174;DHT22;9719;49.322;8.536;2023-07-20T21:15:15;26.80;68.20
19174;DHT22;9719;49.322;8.536;2023-07-20T21:20:17;26.80;68.30
19174;DHT22;9719;49.322;8.536;2023-07-20T21:25:20;26.80;68.30
19174;DHT22;9719;49.322;8.536;2023-07-20T21:30:23;26.80;68.30
19174;DHT22;9719;49.322;8.536;2023-07-20T21:35:27;26.80;68.50
19174;DHT22;9719;49.322;8.536;2023-07-20T21:40:29;26.80;68.50
19174;DHT22;9719;49.322;8.536;2023-07-20T21:45:32;26.80;68.60
19174;DHT22;9719;49.322;8.536;2023-07-20T21:50:34;26.80;68.70
19174;DHT22;9719;49.322;8.536;2023-07-20T21:55:36;26.80;68.70
19174;DHT22;9719;49.322;8.536;2023-07-20T22:00:39;26.80;68.80
19174;DHT22;9719;49.322;8.536;2023-07-20T22:05:41;26.80;68.80
19174;DHT22;9719;49.322;8.536;2023-07-20T22:10:45;26.80;68.80
19174;DHT22;9719;49.322;8.536;2023-07-20T22:15:48;26.80;68.90
19174;DHT22;9719;49.322;8.536;2023-07-20T22:20:51;26.80;69.00
19174;DHT22;9719;49.322;8.536;2023-07-20T22:25:53;26.80;68.90
19174;DHT22;9719;49.322;8.536;2023-07-20T22:30:58;26.80;68.90
19174;DHT22;9719;49.322;8.536;2023-07-20T22:36:02;26.80;69.00
19174;DHT22;9719;49.322;8.536;2023-07-20T22:41:04;26.80;69.00
19174;DHT22;9719;49.322;8.536;2023-07-20T22:46:08;26.80;69.00
19174;DHT22;9719;49.322;8.536;2023-07-20T22:51:10;26.80;69.10
19174;DHT22;9719;49.322;8.536;2023-07-20T22:56:11;26.70;69.00
19174;DHT22;9719;49.322;8.536;2023-07-20T23:01:15;26.70;69.10
19174;DHT22;9719;49.322;8.536;2023-07-20T23:06:17;26.70;69.10
19174;DHT22;9719;49.322;8.536;2023-07-20T23:11:19;26.70;69.10
19174;DHT22;9719;49.322;8.536;2023-07-20T23:16:22;26.70;69.10
19174;DHT22;9719;49.322;8.536;2023-07-20T23:21:24;26.70;69.00
19174;DHT22;9719;49.322;8.536;2023-07-20T23:26:27;26.70;69.10
19174;DHT22;9719;49.322;8.536;2023-07-20T23:31:30;26.60;69.00
19174;DHT22;9719;49.322;8.536;2023-07-20T23:36:32;26.60;68.90
19174;DHT22;9719;49.322;8.536;2023-07-20T23:41:34;26.60;69.00
19174;DHT22;9719;49.322;8.536;2023-07-20T23:46:38;26.60;69.00
19174;DHT22;9719;49.322;8.536;2023-07-20T23:51:40;26.60;68.90
19174;DHT22;9719;49.322;8.536;2023-07-20T23:56:42;26.60;69.00
